sensor_id;sensor_type;location;lat;lon;timestamp;P1;durP1;ratioP1;P2;durP2;ratioP2
30000;SDS011;16845;48.670;9.000;2024-01-15T00:01:27;32.08;;;13.07;;
30000;SDS011;16845;48.670;9.000;2024-01-15T00:03:54;29.30;;;12.10;;
30000;SDS011;16845;48.670;9.000;2024-01-15T00:06:20;30.55;;;12.88;;
30000;SDS011;16845;48.670;9.000;2024-01-15T00:08:48;32.83;;;13.32;;
30000;SDS011;16845;48.670;9.000;2024-01-15T00:11:15;33.33;;;14.27;;
30000;SDS011;16845;48.670;9.000;2024-01-15T00:13:41;32.65;;;12.73;;
30000;SDS011;16845;48.670;9.000;2024-01-15T00:16:08;27.58;;;12.93;;
30000;SDS011;16845;48.670;9.000;2024-01-15T00:18:34;30.08;;;13.30;;
30000;SDS011;16845;48.670;9.000;2024-01-15T00:21:01;31.85;;;12.38;;
30000;SDS011;16845;48.670;9.000;2024-01-15T00:23:28;33.67;;;13.73;;
30000;SDS011;16845;48.670;9.000;2024-01-15T00:25:56;30.17;;;12.40;;
30000;SDS011;16845;48.670;9.000;2024-01-15T00:28:22;29.52;;;13.43;;
30000;SDS011;16845;48.670;9.000;2024-01-15T00:30:49;33.33;;;13.63;;
30000;SDS011;16845;48.670;9.000;2024-01-15T00:33:16;30.35;;;12.95;;
30000;SDS011;16845;48.670;9.000;2024-01-15T00:35:42;30.23;;;11.98;;
30000;SDS011;16845;48.670;9.000;2024-01-15T00:38:09;26.83;;;12.05;;
30000;SDS011;16845;48.670;9.000;2024-01-15T00:40:36;28.70;;;12.00;;
30000;SDS011;16845;48.670;9.000;2024-01-15T00:43:04;26.20;;;11.25;;
30000;SDS011;16845;48.670;9.000;2024-01-15T00:45:30;30.92;;;11.80;;
30000;SDS011;16845;48.670;9.000;2024-01-15T00:47:57;25.52;;;11.07;;
30000;SDS011;16845;48.670;9.000;2024-01-15T00:50:24;29.60;;;12.85;;
30000;SDS011;16845;48.670;9.000;2024-01-15T00:52:50;28.88;;;12.70;;
30000;SDS011;16845;48.670;9.000;2024-01-15T00:55:17;31.85;;;13.05;;
30000;SDS011;16845;48.670;9.000;2024-01-15T00:57:43;27.25;;;11.55;;
30000;SDS011;16845;48.670;9.000;2024-01-15T01:00:12;31.65;;;11.23;;
30000;SDS011;16845;48.670;9.000;2024-01-15T01:02:39;31.85;;;11.90;;
30000;SDS011;16845;48.670;9.000;2024-01-15T01:05:06;26.98;;;12.93;;
30000;SDS011;16845;48.670;9.000;2024-01-15T01:07:33;30.33;;;12.45;;
30000;SDS011;16845;48.670;9.000;2024-01-15T01:09:59;29.58;;;11.50;;
30000;SDS011;16845;48.670;9.000;2024-01-15T01:12:26;24.17;;;10.80;;
30000;SDS011;16845;48.670;9.000;2024-01-15T01:14:53;31.90;;;12.88;;
30000;SDS011;16845;48.670;9.000;2024-01-15T01:17:21;32.63;;;12.23;;
30000;SDS011;16845;48.670;9.000;2024-01-15T01:19:47;31.63;;;13.43;;
30000;SDS011;16845;48.670;9.000;2024-01-15T01:22:15;34.50;;;12.55;;
30000;SDS011;16845;48.670;9.000;2024-01-15T01:24:42;29.35;;;11.82;;
30000;SDS011;16845;48.670;9.000;2024-01-15T01:27:08;31.67;;;12.77;;
30000;SDS011;16845;48.670;9.000;2024-01-15T01:29:35;32.65;;;14.98;;
30000;SDS011;16845;48.670;9.000;2024-01-15T01:32:01;22.33;;;8.95;;
30000;SDS011;16845;48.670;9.000;2024-01-15T01:34:29;26.05;;;10.30;;
30000;SDS011;16845;48.670;9.000;2024-01-15T01:37:00;29.23;;;11.77;;
30000;SDS011;16845;48.670;9.000;2024-01-15T01:39:26;26.77;;;12.15;;
30000;SDS011;16845;48.670;9.000;2024-01-15T01:41:53;26.65;;;12.23;;
30000;SDS011;16845;48.670;9.000;2024-01-15T01:44:19;26.60;;;11.80;;
30000;SDS011;16845;48.670;9.000;2024-01-15T01:46:45;30.33;;;13.00;;
30000;SDS011;16845;48.670;9.000;2024-01-15T01:49:12;29.08;;;11.98;;
30000;SDS011;16845;48.670;9.000;2024-01-15T01:51:40;27.08;;;11.88;;
30000;SDS011;16845;48.670;9.000;2024-01-15T01:54:07;32.80;;;12.13;;
30000;SDS011;16845;48.670;9.000;2024-01-15T01:56:34;31.27;;;12.48;;
30000;SDS011;16845;48.670;9.000;2024-01-15T01:59:01;26.15;;;11.57;;
30000;SDS011;16845;48.670;9.000;2024-01-15T02:01:29;30.40;;;12.70;;
30000;SDS011;16845;48.670;9.000;2024-01-15T02:03:57;29.42;;;12.40;;
30000;SDS011;16845;48.670;9.000;2024-01-15T02:06:24;27.70;;;11.82;;
30000;SDS011;16845;48.670;9.000;2024-01-15T02:08:52;31.83;;;12.18;;
30000;SDS011;16845;48.670;9.000;2024-01-15T02:11:19;29.67;;;12.05;;
30000;SDS011;16845;48.670;9.000;2024-01-15T02:13:46;30.05;;;13.90;;
30000;SDS011;16845;48.670;9.000;2024-01-15T02:16:12;31.73;;;12.00;;
30000;SDS011;16845;48.670;9.000;2024-01-15T02:18:40;29.52;;;11.73;;
30000;SDS011;16845;48.670;9.000;2024-01-15T02:21:07;27.95;;;11.73;;
30000;SDS011;16845;48.670;9.000;2024-01-15T02:23:35;31.90;;;12.80;;
30000;SDS011;16845;48.670;9.000;2024-01-15T02:26:01;33.08;;;13.10;;
30000;SDS011;16845;48.670;9.000;2024-01-15T02:28:28;24.90;;;11.98;;
30000;SDS011;16845;48.670;9.000;2024-01-15T02:30:54;30.60;;;14.95;;
30000;SDS011;16845;48.670;9.000;2024-01-15T02:33:21;29.38;;;11.88;;
30000;SDS011;16845;48.670;9.000;2024-01-15T02:35:48;28.67;;;12.88;;
30000;SDS011;16845;48.670;9.000;2024-01-15T02:38:14;27.13;;;11.65;;
30000;SDS011;16845;48.670;9.000;2024-01-15T02:40:42;27.60;;;11.65;;
30000;SDS011;16845;48.670;9.000;2024-01-15T02:43:10;28.45;;;12.10;;
30000;SDS011;16845;48.670;9.000;2024-01-15T02:45:37;35.88;;;13.45;;
30000;SDS011;16845;48.670;9.000;2024-01-15T02:48:03;30.25;;;12.50;;
30000;SDS011;16845;48.670;9.000;2024-01-15T02:52:57;35.17;;;13.50;;
30000;SDS011;16845;48.670;9.000;2024-01-15T02:55:23;29.67;;;12.85;;
30000;SDS011;16845;48.670;9.000;2024-01-15T02:57:51;23.42;;;10.75;;
30000;SDS011;16845;48.670;9.000;2024-01-15T03:00:18;26.30;;;11.95;;
30000;SDS011;16845;48.670;9.000;2024-01-15T03:02:45;26.75;;;11.82;;
30000;SDS011;16845;48.670;9.000;2024-01-15T03:05:14;30.80;;;12.27;;
30000;SDS011;16845;48.670;9.000;2024-01-15T03:07:41;30.92;;;11.88;;
30000;SDS011;16845;48.670;9.000;2024-01-15T03:10:08;30.92;;;13.00;;
30000;SDS011;16845;48.670;9.000;2024-01-15T03:12:34;26.77;;;12.80;;
30000;SDS011;16845;48.670;9.000;2024-01-15T03:15:03;30.75;;;12.48;;
30000;SDS011;16845;48.670;9.000;2024-01-15T03:17:30;26.00;;;10.35;;
30000;SDS011;16845;48.670;9.000;2024-01-15T03:19:57;29.45;;;11.93;;
30000;SDS011;16845;48.670;9.000;2024-01-15T03:22:23;32.78;;;12.50;;
30000;SDS011;16845;48.670;9.000;2024-01-15T03:24:50;36.05;;;13.90;;
30000;SDS011;16845;48.670;9.000;2024-01-15T03:27:17;27.45;;;11.63;;
30000;SDS011;16845;48.670;9.000;2024-01-15T03:29:43;36.15;;;12.65;;
30000;SDS011;16845;48.670;9.000;2024-01-15T03:32:11;33.10;;;12.73;;
30000;SDS011;16845;48.670;9.000;2024-01-15T03:34:38;30.05;;;12.00;;
30000;SDS011;16845;48.670;9.000;2024-01-15T03:37:04;31.20;;;11.38;;
30000;SDS011;16845;48.670;9.000;2024-01-15T03:39:31;22.63;;;9.07;;
30000;SDS011;16845;48.670;9.000;2024-01-15T03:41:58;24.25;;;9.90;;
30000;SDS011;16845;48.670;9.000;2024-01-15T03:44:24;31.10;;;12.40;;
30000;SDS011;16845;48.670;9.000;2024-01-15T03:46:51;31.10;;;12.35;;
30000;SDS011;16845;48.670;9.000;2024-01-15T03:49:19;28.98;;;11.57;;
30000;SDS011;16845;48.670;9.000;2024-01-15T03:51:45;36.10;;;13.15;;
30000;SDS011;16845;48.670;9.000;2024-01-15T03:54:12;29.25;;;12.60;;
30000;SDS011;16845;48.670;9.000;2024-01-15T03:56:39;29.13;;;11.50;;
30000;SDS011;16845;48.670;9.000;2024-01-15T03:59:05;29.25;;;12.60;;
30000;SDS011;16845;48.670;9.000;2024-01-15T04:01:32;29.25;;;13.82;;
30000;SDS011;16845;48.670;9.000;2024-01-15T04:03:58;38.08;;;14.27;;
30000;SDS011;16845;48.670;9.000;2024-01-15T04:06:26;33.13;;;12.48;;
30000;SDS011;16845;48.670;9.000;2024-01-15T04:08:53;32.28;;;14.52;;
30000;SDS011;16845;48.670;9.000;2024-01-15T04:11:19;34.97;;;13.10;;
30000;SDS011;16845;48.670;9.000;2024-01-15T04:13:46;32.75;;;13.90;;
30000;SDS011;16845;48.670;9.000;2024-01-15T04:16:12;26.20;;;12.77;;
30000;SDS011;16845;48.670;9.000;2024-01-15T04:21:06;29.55;;;12.10;;
30000;SDS011;16845;48.670;9.000;2024-01-15T04:23:34;29.35;;;12.57;;
30000;SDS011;16845;48.670;9.000;2024-01-15T04:26:00;28.42;;;12.70;;
30000;SDS011;16845;48.670;9.000;2024-01-15T04:28:27;31.30;;;12.63;;
30000;SDS011;16845;48.670;9.000;2024-01-15T04:30:53;35.05;;;14.02;;
30000;SDS011;16845;48.670;9.000;2024-01-15T04:33:20;33.00;;;13.30;;
30000;SDS011;16845;48.670;9.000;2024-01-15T04:35:47;30.77;;;13.27;;
30000;SDS011;16845;48.670;9.000;2024-01-15T04:38:13;34.08;;;13.80;;
30000;SDS011;16845;48.670;9.000;2024-01-15T04:40:41;34.13;;;13.38;;
30000;SDS011;16845;48.670;9.000;2024-01-15T04:43:08;31.98;;;12.88;;
30000;SDS011;16845;48.670;9.000;2024-01-15T04:45:34;32.20;;;12.70;;
30000;SDS011;16845;48.670;9.000;2024-01-15T04:48:01;29.30;;;13.35;;
30000;SDS011;16845;48.670;9.000;2024-01-15T04:50:28;34.20;;;14.40;;
30000;SDS011;16845;48.670;9.000;2024-01-15T04:52:54;20.10;;;10.18;;
30000;SDS011;16845;48.670;9.000;2024-01-15T04:55:21;28.58;;;11.95;;
30000;SDS011;16845;48.670;9.000;2024-01-15T04:57:49;31.58;;;13.23;;
30000;SDS011;16845;48.670;9.000;2024-01-15T05:00:16;27.25;;;11.73;;
30000;SDS011;16845;48.670;9.000;2024-01-15T05:02:43;24.42;;;11.38;;
30000;SDS011;16845;48.670;9.000;2024-01-15T05:05:10;31.00;;;12.98;;
30000;SDS011;16845;48.670;9.000;2024-01-15T05:07:36;26.55;;;12.93;;
30000;SDS011;16845;48.670;9.000;2024-01-15T05:10:03;28.15;;;13.63;;
30000;SDS011;16845;48.670;9.000;2024-01-15T05:12:30;28.50;;;13.07;;
30000;SDS011;16845;48.670;9.000;2024-01-15T05:14:58;26.60;;;11.98;;
30000;SDS011;16845;48.670;9.000;2024-01-15T05:17:24;38.45;;;13.18;;
30000;SDS011;16845;48.670;9.000;2024-01-15T05:19:51;30.08;;;13.38;;
30000;SDS011;16845;48.670;9.000;2024-01-15T05:22:18;31.60;;;13.07;;
30000;SDS011;16845;48.670;9.000;2024-01-15T05:24:44;32.63;;;14.02;;
30000;SDS011;16845;48.670;9.000;2024-01-15T05:27:11;32.10;;;13.48;;
30000;SDS011;16845;48.670;9.000;2024-01-15T05:29:37;23.83;;;10.60;;
30000;SDS011;16845;48.670;9.000;2024-01-15T05:32:05;27.42;;;13.02;;
30000;SDS011;16845;48.670;9.000;2024-01-15T05:34:32;33.85;;;13.35;;
30000;SDS011;16845;48.670;9.000;2024-01-15T05:36:59;31.63;;;13.18;;
30000;SDS011;16845;48.670;9.000;2024-01-15T05:39:26;33.80;;;15.32;;
30000;SDS011;16845;48.670;9.000;2024-01-15T05:41:52;19.73;;;10.85;;
30000;SDS011;16845;48.670;9.000;2024-01-15T05:44:19;38.05;;;13.82;;
30000;SDS011;16845;48.670;9.000;2024-01-15T05:46:45;30.52;;;12.80;;
30000;SDS011;16845;48.670;9.000;2024-01-15T05:49:13;26.35;;;12.55;;
30000;SDS011;16845;48.670;9.000;2024-01-15T05:51:40;31.65;;;11.38;;
30000;SDS011;16845;48.670;9.000;2024-01-15T05:54:07;32.70;;;12.88;;
30000;SDS011;16845;48.670;9.000;2024-01-15T05:56:33;28.20;;;13.27;;
30000;SDS011;16845;48.670;9.000;2024-01-15T05:59:00;26.67;;;10.88;;
30000;SDS011;16845;48.670;9.000;2024-01-15T06:01:26;24.90;;;11.48;;
30000;SDS011;16845;48.670;9.000;2024-01-15T06:03:53;32.67;;;14.20;;
30000;SDS011;16845;48.670;9.000;2024-01-15T06:06:21;25.98;;;12.35;;
30000;SDS011;16845;48.670;9.000;2024-01-15T06:08:48;20.55;;;10.30;;
30000;SDS011;16845;48.670;9.000;2024-01-15T06:11:14;21.13;;;10.95;;
30000;SDS011;16845;48.670;9.000;2024-01-15T06:13:41;29.70;;;13.70;;
30000;SDS011;16845;48.670;9.000;2024-01-15T06:16:12;30.30;;;12.48;;
30000;SDS011;16845;48.670;9.000;2024-01-15T06:18:40;26.77;;;11.65;;
30000;SDS011;16845;48.670;9.000;2024-01-15T06:21:06;28.70;;;12.70;;
30000;SDS011;16845;48.670;9.000;2024-01-15T06:23:34;27.25;;;12.98;;
30000;SDS011;16845;48.670;9.000;2024-01-15T06:26:01;27.08;;;12.77;;
30000;SDS011;16845;48.670;9.000;2024-01-15T06:28:27;30.05;;;12.20;;
30000;SDS011;16845;48.670;9.000;2024-01-15T06:30:54;27.23;;;12.45;;
30000;SDS011;16845;48.670;9.000;2024-01-15T06:33:20;28.98;;;12.95;;
30000;SDS011;16845;48.670;9.000;2024-01-15T06:35:47;27.90;;;13.35;;
30000;SDS011;16845;48.670;9.000;2024-01-15T06:38:13;23.13;;;11.40;;
30000;SDS011;16845;48.670;9.000;2024-01-15T06:40:41;29.08;;;13.40;;
30000;SDS011;16845;48.670;9.000;2024-01-15T06:43:08;28.05;;;12.95;;
30000;SDS011;16845;48.670;9.000;2024-01-15T06:45:34;25.23;;;12.68;;
30000;SDS011;16845;48.670;9.000;2024-01-15T06:48:01;30.80;;;13.25;;
30000;SDS011;16845;48.670;9.000;2024-01-15T06:50:27;27.98;;;11.75;;
30000;SDS011;16845;48.670;9.000;2024-01-15T06:52:54;32.95;;;13.10;;
30000;SDS011;16845;48.670;9.000;2024-01-15T06:55:20;25.65;;;12.90;;
30000;SDS011;16845;48.670;9.000;2024-01-15T06:57:48;32.75;;;14.15;;
30000;SDS011;16845;48.670;9.000;2024-01-15T07:00:15;28.48;;;13.32;;
30000;SDS011;16845;48.670;9.000;2024-01-15T07:02:42;22.67;;;12.43;;
30000;SDS011;16845;48.670;9.000;2024-01-15T07:05:09;21.17;;;9.90;;
30000;SDS011;16845;48.670;9.000;2024-01-15T07:07:36;34.95;;;14.35;;
30000;SDS011;16845;48.670;9.000;2024-01-15T07:10:03;26.55;;;11.27;;
30000;SDS011;16845;48.670;9.000;2024-01-15T07:12:30;27.83;;;13.38;;
30000;SDS011;16845;48.670;9.000;2024-01-15T07:14:58;31.13;;;13.35;;
30000;SDS011;16845;48.670;9.000;2024-01-15T07:17:24;28.02;;;12.20;;
30000;SDS011;16845;48.670;9.000;2024-01-15T07:19:51;24.58;;;13.45;;
30000;SDS011;16845;48.670;9.000;2024-01-15T07:22:18;25.38;;;12.57;;
30000;SDS011;16845;48.670;9.000;2024-01-15T07:24:44;26.38;;;11.98;;
30000;SDS011;16845;48.670;9.000;2024-01-15T07:27:11;27.13;;;12.95;;
30000;SDS011;16845;48.670;9.000;2024-01-15T07:29:38;27.80;;;11.10;;
30000;SDS011;16845;48.670;9.000;2024-01-15T07:32:06;22.70;;;10.63;;
30000;SDS011;16845;48.670;9.000;2024-01-15T07:34:32;26.92;;;10.93;;
30000;SDS011;16845;48.670;9.000;2024-01-15T07:36:59;27.08;;;11.70;;
30000;SDS011;16845;48.670;9.000;2024-01-15T07:39:26;29.02;;;11.95;;
30000;SDS011;16845;48.670;9.000;2024-01-15T07:41:52;21.55;;;10.57;;
30000;SDS011;16845;48.670;9.000;2024-01-15T07:44:19;28.10;;;11.30;;
30000;SDS011;16845;48.670;9.000;2024-01-15T07:46:46;26.05;;;11.88;;
30000;SDS011;16845;48.670;9.000;2024-01-15T07:49:14;18.20;;;10.63;;
30000;SDS011;16845;48.670;9.000;2024-01-15T07:51:40;20.88;;;10.88;;
30000;SDS011;16845;48.670;9.000;2024-01-15T07:54:07;27.73;;;10.90;;
30000;SDS011;16845;48.670;9.000;2024-01-15T07:56:33;23.67;;;9.88;;
30000;SDS011;16845;48.670;9.000;2024-01-15T07:59:00;19.90;;;8.55;;
30000;SDS011;16845;48.670;9.000;2024-01-15T08:01:27;24.13;;;10.25;;
30000;SDS011;16845;48.670;9.000;2024-01-15T08:03:53;20.13;;;11.05;;
30000;SDS011;16845;48.670;9.000;2024-01-15T08:06:21;23.77;;;10.82;;
30000;SDS011;16845;48.670;9.000;2024-01-15T08:08:48;23.50;;;9.82;;
30000;SDS011;16845;48.670;9.000;2024-01-15T08:11:14;18.85;;;10.15;;
30000;SDS011;16845;48.670;9.000;2024-01-15T08:13:41;27.23;;;12.85;;
30000;SDS011;16845;48.670;9.000;2024-01-15T08:16:07;22.50;;;9.20;;
30000;SDS011;16845;48.670;9.000;2024-01-15T08:18:34;20.27;;;10.05;;
30000;SDS011;16845;48.670;9.000;2024-01-15T08:21:00;20.48;;;9.95;;
30000;SDS011;16845;48.670;9.000;2024-01-15T08:23:28;20.45;;;8.88;;
30000;SDS011;16845;48.670;9.000;2024-01-15T08:25:55;19.10;;;9.00;;
30000;SDS011;16845;48.670;9.000;2024-01-15T08:28:21;19.30;;;8.82;;
30000;SDS011;16845;48.670;9.000;2024-01-15T08:30:48;18.75;;;8.07;;
30000;SDS011;16845;48.670;9.000;2024-01-15T08:33:15;20.85;;;8.52;;
30000;SDS011;16845;48.670;9.000;2024-01-15T08:35:48;15.65;;;7.18;;
30000;SDS011;16845;48.670;9.000;2024-01-15T08:38:14;15.52;;;7.47;;
30000;SDS011;16845;48.670;9.000;2024-01-15T08:40:42;14.63;;;7.78;;
30000;SDS011;16845;48.670;9.000;2024-01-15T08:43:09;16.48;;;8.05;;
30000;SDS011;16845;48.670;9.000;2024-01-15T08:45:35;14.25;;;6.90;;
30000;SDS011;16845;48.670;9.000;2024-01-15T08:48:02;15.30;;;6.88;;
30000;SDS011;16845;48.670;9.000;2024-01-15T08:50:41;16.75;;;8.23;;
30000;SDS011;16845;48.670;9.000;2024-01-15T08:53:07;14.02;;;6.82;;
30000;SDS011;16845;48.670;9.000;2024-01-15T08:55:34;18.20;;;7.38;;
30000;SDS011;16845;48.670;9.000;2024-01-15T08:58:02;12.20;;;4.85;;
30000;SDS011;16845;48.670;9.000;2024-01-15T09:00:29;13.02;;;6.30;;
30000;SDS011;16845;48.670;9.000;2024-01-15T09:02:55;14.27;;;7.30;;
30000;SDS011;16845;48.670;9.000;2024-01-15T09:05:22;18.13;;;7.60;;
30000;SDS011;16845;48.670;9.000;2024-01-15T09:07:49;15.65;;;7.32;;
30000;SDS011;16845;48.670;9.000;2024-01-15T09:10:15;14.30;;;6.78;;
30000;SDS011;16845;48.670;9.000;2024-01-15T09:12:42;16.38;;;7.03;;
30000;SDS011;16845;48.670;9.000;2024-01-15T09:15:10;10.13;;;5.47;;
30000;SDS011;16845;48.670;9.000;2024-01-15T09:17:37;15.98;;;6.95;;
30000;SDS011;16845;48.670;9.000;2024-01-15T09:20:04;18.15;;;7.35;;
30000;SDS011;16845;48.670;9.000;2024-01-15T09:22:31;11.60;;;5.72;;
30000;SDS011;16845;48.670;9.000;2024-01-15T09:24:58;13.93;;;7.60;;
30000;SDS011;16845;48.670;9.000;2024-01-15T09:27:24;11.88;;;6.05;;
30000;SDS011;16845;48.670;9.000;2024-01-15T09:29:51;10.55;;;6.15;;
30000;SDS011;16845;48.670;9.000;2024-01-15T09:32:19;11.07;;;6.18;;
30000;SDS011;16845;48.670;9.000;2024-01-15T09:34:46;16.30;;;6.25;;
30000;SDS011;16845;48.670;9.000;2024-01-15T09:37:13;15.25;;;7.07;;
30000;SDS011;16845;48.670;9.000;2024-01-15T09:39:57;13.70;;;5.82;;
30000;SDS011;16845;48.670;9.000;2024-01-15T09:42:23;14.88;;;6.18;;
30000;SDS011;16845;48.670;9.000;2024-01-15T09:44:51;13.40;;;6.53;;
30000;SDS011;16845;48.670;9.000;2024-01-15T09:47:18;12.13;;;6.70;;
30000;SDS011;16845;48.670;9.000;2024-01-15T09:49:46;12.57;;;5.82;;
30000;SDS011;16845;48.670;9.000;2024-01-15T09:52:13;14.65;;;7.22;;
30000;SDS011;16845;48.670;9.000;2024-01-15T09:54:42;13.77;;;6.22;;
30000;SDS011;16845;48.670;9.000;2024-01-15T09:57:12;11.80;;;5.68;;
30000;SDS011;16845;48.670;9.000;2024-01-15T09:59:39;14.63;;;6.45;;
30000;SDS011;16845;48.670;9.000;2024-01-15T10:02:08;10.75;;;6.55;;
30000;SDS011;16845;48.670;9.000;2024-01-15T10:04:40;15.23;;;6.82;;
30000;SDS011;16845;48.670;9.000;2024-01-15T10:07:06;12.07;;;6.68;;
30000;SDS011;16845;48.670;9.000;2024-01-15T10:09:35;15.32;;;6.95;;
30000;SDS011;16845;48.670;9.000;2024-01-15T10:12:01;10.98;;;6.47;;
30000;SDS011;16845;48.670;9.000;2024-01-15T10:14:28;12.55;;;5.45;;
30000;SDS011;16845;48.670;9.000;2024-01-15T10:16:56;14.52;;;6.80;;
30000;SDS011;16845;48.670;9.000;2024-01-15T10:19:22;15.00;;;6.70;;
30000;SDS011;16845;48.670;9.000;2024-01-15T10:21:51;15.10;;;7.65;;
30000;SDS011;16845;48.670;9.000;2024-01-15T10:24:18;15.27;;;6.38;;
30000;SDS011;16845;48.670;9.000;2024-01-15T10:26:44;12.90;;;7.13;;
30000;SDS011;16845;48.670;9.000;2024-01-15T10:29:11;14.43;;;6.20;;
30000;SDS011;16845;48.670;9.000;2024-01-15T10:31:37;12.13;;;6.05;;
30000;SDS011;16845;48.670;9.000;2024-01-15T10:34:10;14.70;;;6.78;;
30000;SDS011;16845;48.670;9.000;2024-01-15T10:36:38;14.35;;;6.22;;
30000;SDS011;16845;48.670;9.000;2024-01-15T10:39:07;14.77;;;6.97;;
30000;SDS011;16845;48.670;9.000;2024-01-15T10:41:34;12.20;;;6.78;;
30000;SDS011;16845;48.670;9.000;2024-01-15T10:44:00;14.63;;;7.20;;
30000;SDS011;16845;48.670;9.000;2024-01-15T10:46:27;18.48;;;7.75;;
30000;SDS011;16845;48.670;9.000;2024-01-15T10:48:55;15.57;;;6.60;;
30000;SDS011;16845;48.670;9.000;2024-01-15T10:51:21;13.75;;;6.97;;
30000;SDS011;16845;48.670;9.000;2024-01-15T10:53:49;12.10;;;7.10;;
30000;SDS011;16845;48.670;9.000;2024-01-15T10:56:17;18.60;;;8.27;;
30000;SDS011;16845;48.670;9.000;2024-01-15T10:58:44;12.38;;;6.43;;
30000;SDS011;16845;48.670;9.000;2024-01-15T11:01:12;13.00;;;6.75;;
30000;SDS011;16845;48.670;9.000;2024-01-15T11:06:15;14.70;;;6.40;;
30000;SDS011;16845;48.670;9.000;2024-01-15T11:08:42;13.00;;;6.35;;
30000;SDS011;16845;48.670;9.000;2024-01-15T11:11:09;12.75;;;7.22;;
30000;SDS011;16845;48.670;9.000;2024-01-15T11:13:43;12.60;;;5.53;;
30000;SDS011;16845;48.670;9.000;2024-01-15T11:16:13;14.15;;;7.07;;
30000;SDS011;16845;48.670;9.000;2024-01-15T11:18:41;14.63;;;6.65;;
30000;SDS011;16845;48.670;9.000;2024-01-15T11:21:24;12.05;;;6.45;;
30000;SDS011;16845;48.670;9.000;2024-01-15T11:23:52;15.55;;;6.88;;
30000;SDS011;16845;48.670;9.000;2024-01-15T11:31:57;14.27;;;7.30;;
30000;SDS011;16845;48.670;9.000;2024-01-15T11:37:19;15.52;;;6.90;;
30000;SDS011;16845;48.670;9.000;2024-01-15T11:39:46;12.57;;;6.40;;
30000;SDS011;16845;48.670;9.000;2024-01-15T11:42:13;11.27;;;6.10;;
30000;SDS011;16845;48.670;9.000;2024-01-15T11:44:41;13.05;;;7.00;;
30000;SDS011;16845;48.670;9.000;2024-01-15T11:47:08;12.63;;;6.72;;
30000;SDS011;16845;48.670;9.000;2024-01-15T11:52:33;12.57;;;7.93;;
30000;SDS011;16845;48.670;9.000;2024-01-15T11:55:10;12.63;;;5.70;;
30000;SDS011;16845;48.670;9.000;2024-01-15T11:57:41;14.95;;;7.22;;
30000;SDS011;16845;48.670;9.000;2024-01-15T12:00:11;13.43;;;7.00;;
30000;SDS011;16845;48.670;9.000;2024-01-15T12:02:39;11.63;;;7.35;;
30000;SDS011;16845;48.670;9.000;2024-01-15T12:07:33;18.30;;;8.00;;
30000;SDS011;16845;48.670;9.000;2024-01-15T12:10:00;14.02;;;6.82;;
30000;SDS011;16845;48.670;9.000;2024-01-15T12:12:28;13.82;;;6.70;;
30000;SDS011;16845;48.670;9.000;2024-01-15T12:15:02;16.05;;;7.75;;
30000;SDS011;16845;48.670;9.000;2024-01-15T12:19:57;15.63;;;7.70;;
30000;SDS011;16845;48.670;9.000;2024-01-15T12:22:24;16.45;;;7.97;;
30000;SDS011;16845;48.670;9.000;2024-01-15T12:24:50;14.13;;;8.30;;
30000;SDS011;16845;48.670;9.000;2024-01-15T12:27:17;14.70;;;7.47;;
30000;SDS011;16845;48.670;9.000;2024-01-15T12:29:44;16.15;;;8.30;;
30000;SDS011;16845;48.670;9.000;2024-01-15T12:32:11;18.40;;;8.10;;
30000;SDS011;16845;48.670;9.000;2024-01-15T12:34:39;15.65;;;8.30;;
30000;SDS011;16845;48.670;9.000;2024-01-15T12:37:06;14.88;;;7.93;;
30000;SDS011;16845;48.670;9.000;2024-01-15T12:39:33;16.27;;;8.23;;
30000;SDS011;16845;48.670;9.000;2024-01-15T12:42:00;13.75;;;7.38;;
30000;SDS011;16845;48.670;9.000;2024-01-15T12:44:27;16.08;;;8.13;;
30000;SDS011;16845;48.670;9.000;2024-01-15T12:46:54;15.98;;;7.35;;
30000;SDS011;16845;48.670;9.000;2024-01-15T12:49:21;12.10;;;5.47;;
30000;SDS011;16845;48.670;9.000;2024-01-15T12:51:53;14.52;;;7.25;;
30000;SDS011;16845;48.670;9.000;2024-01-15T12:54:19;12.10;;;7.28;;
30000;SDS011;16845;48.670;9.000;2024-01-15T12:56:46;15.63;;;8.73;;
30000;SDS011;16845;48.670;9.000;2024-01-15T12:59:13;16.23;;;8.10;;
30000;SDS011;16845;48.670;9.000;2024-01-15T13:01:39;15.32;;;7.10;;
30000;SDS011;16845;48.670;9.000;2024-01-15T13:04:06;18.75;;;7.53;;
30000;SDS011;16845;48.670;9.000;2024-01-15T13:06:33;14.27;;;7.55;;
30000;SDS011;16845;48.670;9.000;2024-01-15T13:09:01;17.75;;;8.65;;
30000;SDS011;16845;48.670;9.000;2024-01-15T13:11:28;24.08;;;8.15;;
30000;SDS011;16845;48.670;9.000;2024-01-15T13:13:55;16.02;;;8.40;;
30000;SDS011;16845;48.670;9.000;2024-01-15T13:16:21;18.77;;;8.57;;
30000;SDS011;16845;48.670;9.000;2024-01-15T13:18:51;21.52;;;8.40;;
30000;SDS011;16845;48.670;9.000;2024-01-15T13:21:18;18.52;;;7.72;;
30000;SDS011;16845;48.670;9.000;2024-01-15T13:23:44;18.10;;;8.45;;
30000;SDS011;16845;48.670;9.000;2024-01-15T13:26:12;16.60;;;7.47;;
30000;SDS011;16845;48.670;9.000;2024-01-15T13:28:38;18.05;;;8.05;;
30000;SDS011;16845;48.670;9.000;2024-01-15T13:31:05;31.73;;;8.52;;
30000;SDS011;16845;48.670;9.000;2024-01-15T13:33:32;37.33;;;11.05;;
30000;SDS011;16845;48.670;9.000;2024-01-15T13:35:58;9.52;;;5.47;;
30000;SDS011;16845;48.670;9.000;2024-01-15T13:38:25;16.77;;;6.70;;
30000;SDS011;16845;48.670;9.000;2024-01-15T13:40:51;12.38;;;6.65;;
30000;SDS011;16845;48.670;9.000;2024-01-15T13:43:19;12.60;;;6.25;;
30000;SDS011;16845;48.670;9.000;2024-01-15T13:45:46;12.57;;;5.75;;
30000;SDS011;16845;48.670;9.000;2024-01-15T13:48:12;15.30;;;6.15;;
30000;SDS011;16845;48.670;9.000;2024-01-15T13:50:39;23.33;;;7.70;;
30000;SDS011;16845;48.670;9.000;2024-01-15T13:53:05;11.90;;;5.93;;
30000;SDS011;16845;48.670;9.000;2024-01-15T13:55:32;9.90;;;6.28;;
30000;SDS011;16845;48.670;9.000;2024-01-15T13:57:59;20.50;;;6.53;;
30000;SDS011;16845;48.670;9.000;2024-01-15T14:00:27;9.93;;;4.93;;
30000;SDS011;16845;48.670;9.000;2024-01-15T14:02:54;13.38;;;5.65;;
30000;SDS011;16845;48.670;9.000;2024-01-15T14:05:20;14.52;;;6.25;;
30000;SDS011;16845;48.670;9.000;2024-01-15T14:07:47;12.60;;;4.80;;
30000;SDS011;16845;48.670;9.000;2024-01-15T14:10:13;12.45;;;6.43;;
30000;SDS011;16845;48.670;9.000;2024-01-15T14:12:40;14.35;;;6.57;;
30000;SDS011;16845;48.670;9.000;2024-01-15T14:15:07;12.50;;;5.93;;
30000;SDS011;16845;48.670;9.000;2024-01-15T14:17:35;9.45;;;5.28;;
30000;SDS011;16845;48.670;9.000;2024-01-15T14:20:02;13.32;;;5.90;;
30000;SDS011;16845;48.670;9.000;2024-01-15T14:22:29;25.58;;;6.68;;
30000;SDS011;16845;48.670;9.000;2024-01-15T14:24:56;16.70;;;5.90;;
30000;SDS011;16845;48.670;9.000;2024-01-15T14:27:22;14.43;;;6.38;;
30000;SDS011;16845;48.670;9.000;2024-01-15T14:29:49;15.27;;;6.00;;
30000;SDS011;16845;48.670;9.000;2024-01-15T14:32:16;7.72;;;4.00;;
30000;SDS011;16845;48.670;9.000;2024-01-15T14:34:44;10.52;;;5.60;;
30000;SDS011;16845;48.670;9.000;2024-01-15T14:37:11;11.38;;;5.82;;
30000;SDS011;16845;48.670;9.000;2024-01-15T14:39:37;13.00;;;7.37;;
30000;SDS011;16845;48.670;9.000;2024-01-15T14:42:04;8.55;;;5.75;;
30000;SDS011;16845;48.670;9.000;2024-01-15T14:44:30;9.45;;;5.65;;
30000;SDS011;16845;48.670;9.000;2024-01-15T14:46:57;9.05;;;5.50;;
30000;SDS011;16845;48.670;9.000;2024-01-15T14:49:23;7.32;;;4.53;;
30000;SDS011;16845;48.670;9.000;2024-01-15T14:51:51;6.15;;;3.90;;